Sign-in with your pilot id or email, or register

Flight ORB174

  • Submitted By: Thomas Schedl
  • Departure Airport: Bologna (LIPE)
  • Arrival Airport: Ferihegy (LHBP)
  • Aircraft: B737-800 (EI-RAI)
  • Flight Time: 1.08
  • Date Submitted: 26/07/2019
  • Route: LUMAV ROSKA GEMKA ZAG SVR VEBOS
  • Status: Accepted
Flight Details
Gross Revenue:
(160 load / € 188.00 per unit
€ 30, 080.00
Fuel Cost:
(7396 fuel used @ 0.9253 / unit)
€ 6, 843.52

Additional Log Information:

View Log

[2019/07/27 07:04:00]
Flight IATA:ORB174
Pilot Number:ORB0001
Company ICAO:ORB
Aircraft Type:B737-800
PAX:160
Aircraft Registration:EI-RAI
Departing Airport: LIPE
Destination Airport: LHBP
Alternate Airport:LOWW
Online: No
Route:LUMAV ROSKA GEMKA ZAG SVR VEBOS
Flight Level:30000
07:04 Zero fuel Weight: 135701 Lbs, Fuel Weight: 15575 Lbs
07:04 VATSIM:LIPE 262050Z 07008KT 020V090 9999 FEW050 28/17 Q1007
07:04 VATSIM:LHBP 262100Z 09006KT CAVOK 22/19 Q1008 NOSIG
07:09 Parking Brakes off
07:09 Com1 Freq=120.80
07:09 VR= 153 Knots
07:09 V2= 159 Knots
07:09 Take-off
07:09 Take off Weight: 150950 Lbs
07:09 Wind: 047? @ 008 Knots Heading: 297?
07:09 POS N44? 32? 11?? E011? 17? 09??
07:09 N11 111 N12 111
07:09 Flaps:3 at 160 Knots
07:09 Gear Up: 162 Knots
07:09 Com1 Freq=128.10
07:10 Flaps:2 at 166 Knots
07:10 Flaps:1 at 174 Knots
07:10 Flaps:0 at 200 Knots
07:10 Flaps:1 at 243 Knots
07:10 Flaps:2 at 242 Knots
07:10 Flaps:3 at 246 Knots
07:10 Flaps:2 at 247 Knots
07:10 Flaps:1 at 248 Knots
07:11 Flaps:0 at 250 Knots
07:17 Com1 Freq=124.15
07:24 Wind:216?@008 Knots Heading: 059? Ground Speed: 434 Knots Altitude 28887 ft
07:24 TOC
07:24 Fuel Weight: 12125 Lb
07:28 Com1 Freq=129.42
07:36 Com1 Freq=121.32
07:39 Wind:279?@015 Knots Heading: 073? Ground Speed: 481 Knots Altitude 30000 ft
07:41 Com1 Freq=129.42
07:49 TOD
07:49 Fuel Weight: 9496 Lb
07:50 Com1 Freq=128.12
07:54 Wind:308?@028 Knots Heading: 049? Ground Speed: 413 Knots Altitude 22910 ft
08:00 Com1 Freq=129.70
08:09 Wind:158?@003 Knots Heading: 128? Ground Speed: 223 Knots Altitude 3225 ft
08:09 Com1 Freq=118.10
08:09 Gear Down: 211 Knots
08:09 Flaps:1 at 212 Knots
08:09 Flaps:2 at 210 Knots
08:09 Flaps:3 at 209 Knots
08:10 Flaps:4 at 209 Knots
08:10 Flaps:5 at 208 Knots
08:10 Flaps:6 at 206 Knots
08:10 Flaps:7 at 166 Knots
08:11 Flaps:8 at 136 Knots
08:12 TouchDown:Rate -525 ft/min Speed: 124 Knots
08:13 VATSIM:LHBP 262200Z 06009KT 020V080 9999 FEW040CB 21/20 Q1009 NOSIG
08:13 Land
08:13 Wind:048?@009 Knots
08:13 Heading: 133?
08:13 Flight Duration: 01:04
08:13 Landing Weight: 144145 Lbs
08:13 POS N47? 26? 34?? E019? 13? 48??
08:13 Com1 Freq=121.90
08:17 Parking brakes on
08:17 Block to Block Duration: 01:08
08:17 Final Fuel: 8179 Lbls
08:17 Spent Fuel: 7396 Lbls
08:17 Flight Length: 415 NM
08:17 TOD Land Length: 131 NM

Route Map